createdAt,value
2017-08-25T00:00:17.150Z,24.48
2017-08-25T00:02:50.240Z,24.51
2017-08-25T00:05:21.988Z,24.52
2017-08-25T00:07:53.490Z,24.56
2017-08-25T00:10:26.666Z,24.54
2017-08-25T00:12:58.170Z,24.51
2017-08-25T00:15:31.675Z,24.45
2017-08-25T00:18:05.028Z,24.46
2017-08-25T00:20:38.000Z,24.43
2017-08-25T00:23:10.463Z,24.34
2017-08-25T00:25:42.295Z,24.34
2017-08-25T00:28:15.776Z,24.33
2017-08-25T00:30:47.130Z,24.26
2017-08-25T00:33:18.448Z,24.28
2017-08-25T00:35:50.411Z,24.30
2017-08-25T00:38:22.701Z,24.30
2017-08-25T00:40:54.324Z,24.29
2017-08-25T00:43:27.083Z,24.23
2017-08-25T00:45:58.502Z,24.18
2017-08-25T00:48:32.024Z,24.11
2017-08-25T00:51:05.037Z,24.05
2017-08-25T00:53:36.494Z,24.03
2017-08-25T00:56:09.130Z,24.04
2017-08-25T00:58:40.520Z,23.98
2017-08-25T01:01:11.935Z,23.99
2017-08-25T01:03:44.021Z,23.99
2017-08-25T01:06:16.690Z,23.92
2017-08-25T01:08:48.312Z,23.85
2017-08-25T01:11:19.833Z,23.84
2017-08-25T01:13:51.452Z,23.80
2017-08-25T01:16:23.908Z,23.80
2017-08-25T01:18:55.235Z,23.89
2017-08-25T01:21:28.367Z,23.97
2017-08-25T01:23:59.739Z,24.04
2017-08-25T01:29:36.140Z,24.00
2017-08-25T01:32:07.933Z,23.99
2017-08-25T01:34:39.781Z,23.99
2017-08-25T01:37:11.256Z,23.96
2017-08-25T01:39:43.200Z,23.93
2017-08-25T01:42:14.606Z,23.87
2017-08-25T01:44:45.996Z,23.87
2017-08-25T01:47:17.492Z,23.90
2017-08-25T01:49:50.213Z,23.91
2017-08-25T01:52:24.003Z,23.88
2017-08-25T01:54:55.684Z,23.84
2017-08-25T01:57:27.124Z,23.75
2017-08-25T01:59:58.816Z,23.70
2017-08-25T02:02:30.508Z,23.70
2017-08-25T02:05:02.999Z,23.67
2017-08-25T02:07:34.696Z,23.63
2017-08-25T02:10:08.810Z,23.63
2017-08-25T02:15:45.132Z,23.54
2017-08-25T02:18:16.531Z,23.53
2017-08-25T02:20:48.223Z,23.50
2017-08-25T02:23:20.296Z,23.52
2017-08-25T02:25:51.636Z,23.50
2017-08-25T02:28:23.337Z,23.55
2017-08-25T02:30:55.042Z,23.63
2017-08-25T02:33:26.628Z,23.66
2017-08-25T02:35:57.936Z,23.73
2017-08-25T02:38:29.240Z,23.77
2017-08-25T02:41:01.674Z,23.71
2017-08-25T02:43:33.018Z,23.71
2017-08-25T02:46:07.089Z,23.73
2017-08-25T02:48:38.777Z,23.77
2017-08-25T02:51:11.257Z,23.81
2017-08-25T02:53:42.567Z,23.82
2017-08-25T02:56:13.898Z,23.74
2017-08-25T02:58:45.295Z,23.78
2017-08-25T03:01:17.346Z,23.80
2017-08-25T03:03:48.680Z,23.83
2017-08-25T03:06:20.319Z,23.85
2017-08-25T03:08:51.664Z,23.85
2017-08-25T03:11:23.139Z,23.86
2017-08-25T03:13:54.797Z,23.84
2017-08-25T03:16:26.114Z,23.86
2017-08-25T03:18:57.610Z,23.86
2017-08-25T03:21:28.942Z,23.78
2017-08-25T03:24:00.271Z,23.73
2017-08-25T03:26:31.624Z,23.70
2017-08-25T03:29:03.524Z,23.62
2017-08-25T03:31:35.247Z,23.62
2017-08-25T03:34:06.966Z,23.66
2017-08-25T03:36:38.701Z,23.69
2017-08-25T03:39:10.095Z,23.70
2017-08-25T03:41:41.399Z,23.71
2017-08-25T03:44:13.070Z,23.72
2017-08-25T03:46:44.387Z,23.69
2017-08-25T03:49:17.034Z,23.67
2017-08-25T03:51:48.416Z,23.68
2017-08-25T03:54:20.417Z,23.64
2017-08-25T03:56:52.205Z,23.61
2017-08-25T03:59:23.509Z,23.63
2017-08-25T04:01:55.421Z,23.59
2017-08-25T04:04:26.754Z,23.54
2017-08-25T04:06:58.108Z,23.46
2017-08-25T04:09:29.767Z,23.48
2017-08-25T04:12:01.291Z,23.41
2017-08-25T04:14:32.687Z,23.37
2017-08-25T04:17:05.508Z,23.35
2017-08-25T04:19:36.848Z,23.30
2017-08-25T04:22:10.983Z,23.27
2017-08-25T04:24:42.678Z,23.25
2017-08-25T04:27:15.170Z,23.16
2017-08-25T04:29:47.020Z,23.17
2017-08-25T04:32:19.452Z,23.13
2017-08-25T04:34:50.867Z,23.08
2017-08-25T04:37:24.568Z,23.05
2017-08-25T04:39:56.003Z,23.03
2017-08-25T04:42:27.539Z,23.05
2017-08-25T04:44:58.903Z,23.04
2017-08-25T04:47:30.756Z,23.08
2017-08-25T04:50:03.407Z,23.08
2017-08-25T04:52:34.871Z,23.04
2017-08-25T04:55:06.777Z,23.10
2017-08-25T04:57:38.195Z,23.15
2017-08-25T05:00:11.629Z,23.19
2017-08-25T05:02:43.287Z,23.19
2017-08-25T05:05:14.623Z,23.10
2017-08-25T05:07:46.250Z,23.10
2017-08-25T05:10:17.576Z,23.08
2017-08-25T05:12:48.924Z,23.07
2017-08-25T05:15:20.748Z,23.16
2017-08-25T05:17:52.087Z,23.25
2017-08-25T05:20:23.677Z,23.28
2017-08-25T05:22:54.995Z,23.35
2017-08-25T05:25:26.345Z,23.44
2017-08-25T05:27:57.976Z,23.54
2017-08-25T05:30:29.317Z,23.69
2017-08-25T05:33:01.219Z,23.72
2017-08-25T05:35:33.352Z,23.79
2017-08-25T05:38:05.772Z,23.88
2017-08-25T05:40:37.475Z,23.99
2017-08-25T05:43:11.324Z,24.02
2017-08-25T05:45:42.720Z,23.90
2017-08-25T05:48:14.718Z,23.75
2017-08-25T05:50:46.234Z,23.79
2017-08-25T05:53:17.759Z,23.93
2017-08-25T05:55:49.583Z,24.00
2017-08-25T05:58:20.997Z,24.11
2017-08-25T06:00:52.461Z,24.32
2017-08-25T06:03:24.743Z,24.18
2017-08-25T06:05:58.933Z,24.11
2017-08-25T06:08:30.549Z,24.23
2017-08-25T06:11:02.320Z,24.35
2017-08-25T06:13:33.922Z,24.50
2017-08-25T06:16:06.412Z,24.58
2017-08-25T06:18:37.870Z,24.63
2017-08-25T06:21:11.544Z,24.75
2017-08-25T06:23:42.876Z,24.88
2017-08-25T06:26:15.154Z,24.96
2017-08-25T06:28:46.905Z,25.02
2017-08-25T06:31:21.149Z,25.07
2017-08-25T06:33:52.843Z,25.22
2017-08-25T06:36:24.613Z,25.25
2017-08-25T06:38:56.171Z,25.39
2017-08-25T06:44:27.734Z,25.79
2017-08-25T06:46:59.165Z,25.92
2017-08-25T06:49:31.144Z,26.04
2017-08-25T06:52:03.883Z,26.19
2017-08-25T06:54:38.039Z,26.37
2017-08-25T06:57:15.726Z,26.31
2017-08-25T06:59:48.152Z,26.07
2017-08-25T07:05:20.512Z,25.98
2017-08-25T07:07:51.878Z,26.11
2017-08-25T07:10:23.696Z,26.17
2017-08-25T07:12:55.037Z,26.28
2017-08-25T07:15:26.732Z,26.31
2017-08-25T07:17:58.080Z,26.54
2017-08-25T07:20:29.595Z,26.77
2017-08-25T07:23:01.334Z,26.98
2017-08-25T07:25:32.771Z,27.10
2017-08-25T07:28:05.671Z,27.19
2017-08-25T07:30:37.271Z,27.13
2017-08-25T07:33:08.623Z,26.91
2017-08-25T07:35:39.968Z,26.95
2017-08-25T07:38:11.572Z,26.98
2017-08-25T07:40:45.590Z,26.58
2017-08-25T07:43:20.591Z,26.42
2017-08-25T07:45:51.996Z,26.28
2017-08-25T07:48:23.316Z,26.07
2017-08-25T07:50:54.936Z,26.08
2017-08-25T07:53:26.266Z,26.28
2017-08-25T07:55:57.921Z,26.58
2017-08-25T07:58:29.285Z,26.81
2017-08-25T08:01:00.673Z,27.02
2017-08-25T08:03:32.150Z,27.31
2017-08-25T08:06:04.361Z,27.85
2017-08-25T08:08:36.041Z,28.00
2017-08-25T08:11:07.369Z,27.95
2017-08-25T08:13:38.674Z,27.80
2017-08-25T08:16:09.981Z,27.79
2017-08-25T08:18:41.294Z,27.71
2017-08-25T08:21:12.915Z,27.32
2017-08-25T08:23:44.238Z,27.08
2017-08-25T08:26:15.660Z,27.12
2017-08-25T08:28:47.403Z,27.08
2017-08-25T08:31:20.360Z,27.07
2017-08-25T08:33:51.646Z,27.35
2017-08-25T08:36:27.325Z,27.52
2017-08-25T08:38:58.819Z,27.27
2017-08-25T08:41:30.613Z,27.21
2017-08-25T08:44:03.307Z,27.39
2017-08-25T08:46:34.660Z,27.70
2017-08-25T08:49:05.999Z,27.94
2017-08-25T08:51:37.711Z,28.01
2017-08-25T08:54:09.224Z,28.20
2017-08-25T08:56:40.525Z,28.36
2017-08-25T08:59:12.296Z,28.49
2017-08-25T09:04:22.734Z,28.55
2017-08-25T09:06:54.630Z,28.40
2017-08-25T09:09:27.554Z,28.54
2017-08-25T09:11:58.870Z,28.72
2017-08-25T09:14:30.367Z,28.88
2017-08-25T09:17:02.470Z,29.02
2017-08-25T09:19:33.882Z,29.14
2017-08-25T09:22:06.045Z,29.26
2017-08-25T09:24:37.663Z,29.20
2017-08-25T09:27:08.989Z,29.33
2017-08-25T09:29:40.846Z,29.52
2017-08-25T09:32:12.748Z,29.66
2017-08-25T09:34:44.142Z,29.67
2017-08-25T09:37:16.062Z,29.83
2017-08-25T09:39:47.515Z,30.03
2017-08-25T09:42:19.743Z,29.70
2017-08-25T09:44:51.644Z,29.67
2017-08-25T09:47:22.993Z,29.74
2017-08-25T09:49:54.297Z,29.96
2017-08-25T09:52:25.989Z,30.43
2017-08-25T09:54:57.366Z,30.65
2017-08-25T09:57:29.051Z,30.81
2017-08-25T10:00:00.487Z,30.64
2017-08-25T10:02:32.113Z,30.64
2017-08-25T10:05:04.087Z,30.66
2017-08-25T10:07:36.030Z,30.98
2017-08-25T10:10:07.798Z,31.17
2017-08-25T10:12:39.110Z,31.25
2017-08-25T10:15:10.441Z,31.49
2017-08-25T10:17:42.282Z,31.57
2017-08-25T10:20:13.754Z,31.73
2017-08-25T10:22:45.100Z,31.41
2017-08-25T10:25:18.040Z,31.49
2017-08-25T10:27:49.444Z,31.78
2017-08-25T10:30:21.215Z,31.92
2017-08-25T10:32:52.971Z,32.27
2017-08-25T10:39:38.092Z,32.73
2017-08-25T10:44:57.150Z,33.27
2017-08-25T10:47:28.424Z,33.56
2017-08-25T10:50:00.070Z,33.89
2017-08-25T10:52:31.383Z,34.38
2017-08-25T10:55:02.931Z,34.16
2017-08-25T10:57:34.753Z,34.32
2017-08-25T11:00:06.298Z,34.58
2017-08-25T11:02:37.574Z,34.95
2017-08-25T11:05:09.365Z,35.26
2017-08-25T11:07:40.736Z,35.68
2017-08-25T11:10:12.080Z,35.80
2017-08-25T11:12:45.589Z,35.93
2017-08-25T11:15:18.089Z,36.30
2017-08-25T11:17:51.087Z,36.24
2017-08-25T11:20:23.425Z,36.56
2017-08-25T11:22:55.540Z,36.92
2017-08-25T11:25:27.265Z,37.11
2017-08-25T11:27:58.702Z,37.63
2017-08-25T11:30:31.289Z,37.87
2017-08-25T11:33:04.430Z,38.12
2017-08-25T11:35:36.222Z,38.59
2017-08-25T11:38:11.031Z,38.23
2017-08-25T11:40:42.793Z,37.15
2017-08-25T11:43:14.166Z,37.16
2017-08-25T11:45:45.768Z,36.46
2017-08-25T11:48:18.326Z,36.76
2017-08-25T11:50:49.925Z,37.56
2017-08-25T11:53:22.371Z,38.34
2017-08-25T11:55:53.831Z,38.69
2017-08-25T11:58:25.142Z,39.53
2017-08-25T12:00:56.741Z,39.82
2017-08-25T12:03:28.071Z,41.14
2017-08-25T12:05:59.536Z,42.38
2017-08-25T12:08:31.628Z,43.65
2017-08-25T12:11:03.997Z,45.68
2017-08-25T12:13:35.900Z,46.39
2017-08-25T12:16:08.002Z,48.37
2017-08-25T12:18:40.462Z,50.34
2017-08-25T12:21:12.233Z,50.59
2017-08-25T12:23:44.220Z,51.61
2017-08-25T12:26:16.929Z,50.74
2017-08-25T12:28:48.324Z,51.70
2017-08-25T12:31:20.927Z,52.71
2017-08-25T12:33:52.766Z,52.51
2017-08-25T12:36:24.309Z,54.05
2017-08-25T12:38:56.399Z,54.73
2017-08-25T12:41:28.470Z,56.21
2017-08-25T12:43:59.844Z,56.77
2017-08-25T12:46:31.427Z,55.38
2017-08-25T12:49:03.389Z,55.43
2017-08-25T12:51:34.906Z,57.32
2017-08-25T12:54:06.862Z,57.74
2017-08-25T12:56:39.056Z,57.15
2017-08-25T12:59:10.888Z,57.18
2017-08-25T13:01:43.128Z,56.69
2017-08-25T13:04:14.581Z,56.80
2017-08-25T13:06:46.092Z,58.21
2017-08-25T13:09:19.169Z,57.06
2017-08-25T13:11:50.500Z,57.69
2017-08-25T13:14:23.283Z,57.87
2017-08-25T13:17:13.022Z,58.56
2017-08-25T13:19:44.442Z,58.85
2017-08-25T13:22:16.759Z,59.36
2017-08-25T13:24:48.270Z,59.79
2017-08-25T13:27:20.671Z,59.94
2017-08-25T13:29:52.546Z,59.79
2017-08-25T13:32:24.879Z,60.20
2017-08-25T13:34:56.628Z,60.17
2017-08-25T13:37:28.226Z,59.09
2017-08-25T13:39:59.605Z,59.30
2017-08-25T13:42:31.243Z,60.19
2017-08-25T13:45:02.920Z,60.64
2017-08-25T13:47:34.253Z,58.38
2017-08-25T13:50:06.347Z,55.55
2017-08-25T13:52:37.664Z,50.80
2017-08-25T13:55:09.017Z,47.95
2017-08-25T13:57:40.617Z,45.68
2017-08-25T14:00:11.940Z,45.00
2017-08-25T14:02:43.619Z,44.18
2017-08-25T14:05:15.123Z,43.72
2017-08-25T14:07:46.453Z,45.70
2017-08-25T14:10:19.999Z,46.97
2017-08-25T14:12:51.340Z,49.88
2017-08-25T14:15:22.732Z,51.54
2017-08-25T14:17:54.736Z,52.54
2017-08-25T14:20:26.438Z,52.12
2017-08-25T14:22:57.865Z,52.97
2017-08-25T14:25:29.637Z,50.94
2017-08-25T14:28:03.932Z,47.91
2017-08-25T14:30:35.629Z,49.33
2017-08-25T14:33:12.125Z,51.01
2017-08-25T14:35:44.544Z,52.95
2017-08-25T14:38:17.056Z,54.33
2017-08-25T14:40:48.495Z,55.24
2017-08-25T14:43:21.548Z,55.84
2017-08-25T14:45:53.172Z,55.36
2017-08-25T14:48:24.926Z,54.87
2017-08-25T14:50:56.329Z,54.73
2017-08-25T14:53:28.305Z,53.50
2017-08-25T14:56:00.085Z,54.83
2017-08-25T14:58:32.590Z,55.84
2017-08-25T15:01:05.928Z,56.11
2017-08-25T15:03:38.033Z,56.07
2017-08-25T15:06:09.932Z,52.83
2017-08-25T15:08:41.760Z,49.75
2017-08-25T15:11:13.180Z,48.24
2017-08-25T15:13:44.877Z,47.93
2017-08-25T15:16:17.493Z,46.10
2017-08-25T15:18:52.513Z,44.45
2017-08-25T15:21:25.724Z,43.92
2017-08-25T15:23:57.248Z,42.74
2017-08-25T15:26:28.553Z,41.67
2017-08-25T15:29:01.390Z,40.71
2017-08-25T15:31:33.484Z,39.66
2017-08-25T15:34:06.158Z,38.78
2017-08-25T15:36:37.540Z,37.94
2017-08-25T15:39:08.873Z,37.36
2017-08-25T15:41:40.475Z,37.08
2017-08-25T15:44:11.847Z,36.77
2017-08-25T15:46:43.589Z,37.31
2017-08-25T15:49:15.442Z,38.60
2017-08-25T15:51:46.777Z,39.37
2017-08-25T15:54:20.453Z,38.70
2017-08-25T15:56:51.762Z,37.68
2017-08-25T15:59:23.732Z,36.90
2017-08-25T16:01:55.365Z,36.24
2017-08-25T16:04:27.081Z,35.82
2017-08-25T16:06:58.491Z,35.26
2017-08-25T16:09:30.197Z,34.86
2017-08-25T16:12:03.354Z,34.67
2017-08-25T16:14:34.735Z,34.40
2017-08-25T16:17:06.163Z,33.98
2017-08-25T16:19:37.783Z,33.47
2017-08-25T16:22:09.078Z,33.11
2017-08-25T16:24:40.404Z,32.99
2017-08-25T16:27:12.315Z,32.74
2017-08-25T16:29:43.678Z,32.54
2017-08-25T16:32:15.054Z,32.43
2017-08-25T16:34:47.851Z,32.36
2017-08-25T16:37:20.296Z,32.27
2017-08-25T16:39:51.990Z,32.16
2017-08-25T16:42:24.662Z,32.05
2017-08-25T16:44:56.598Z,31.88
2017-08-25T16:47:28.307Z,31.71
2017-08-25T16:49:59.668Z,31.04
2017-08-25T16:52:31.327Z,30.20
2017-08-25T16:55:03.806Z,29.28
2017-08-25T16:57:35.216Z,29.00
2017-08-25T17:00:17.401Z,28.81
2017-08-25T17:02:48.714Z,28.52
2017-08-25T17:05:22.664Z,28.38
2017-08-25T17:07:54.404Z,28.13
2017-08-25T17:10:26.913Z,28.01
2017-08-25T17:13:01.959Z,27.99
2017-08-25T17:15:33.733Z,28.02
2017-08-25T17:18:06.595Z,27.91
2017-08-25T17:20:37.895Z,27.86
2017-08-25T17:23:09.825Z,27.84
2017-08-25T17:28:51.284Z,27.72
2017-08-25T17:31:27.477Z,27.77
2017-08-25T17:34:08.052Z,27.82
2017-08-25T17:36:39.445Z,27.87
2017-08-25T17:39:11.147Z,27.92
2017-08-25T17:41:42.478Z,27.97
2017-08-25T17:44:14.584Z,27.93
2017-08-25T17:46:45.898Z,27.82
2017-08-25T17:49:17.235Z,27.73
2017-08-25T17:51:49.815Z,27.52
2017-08-25T17:54:22.805Z,27.41
2017-08-25T17:56:54.139Z,27.21
2017-08-25T17:59:26.648Z,26.99
2017-08-25T18:01:58.164Z,26.96
2017-08-25T18:04:29.526Z,26.87
2017-08-25T18:07:01.530Z,26.77
2017-08-25T18:09:32.869Z,26.53
2017-08-25T18:12:05.484Z,26.32
2017-08-25T18:14:37.214Z,26.26
2017-08-25T18:17:08.549Z,26.13
2017-08-25T18:19:39.869Z,26.05
2017-08-25T18:22:11.736Z,26.06
2017-08-25T18:24:43.047Z,26.05
2017-08-25T18:27:14.351Z,26.00
2017-08-25T18:29:46.044Z,25.99
2017-08-25T18:32:19.068Z,25.97
2017-08-25T18:34:50.668Z,25.97
2017-08-25T18:37:24.570Z,25.98
2017-08-25T18:39:55.871Z,25.96
2017-08-25T18:42:27.171Z,25.97
2017-08-25T18:44:58.492Z,25.96
2017-08-25T18:47:30.221Z,25.96
2017-08-25T18:50:03.309Z,25.92
2017-08-25T18:52:34.644Z,25.87
2017-08-25T18:55:06.697Z,25.87
2017-08-25T18:57:38.032Z,25.78
2017-08-25T19:00:11.208Z,25.78
2017-08-25T19:02:42.491Z,25.77
2017-08-25T19:05:13.907Z,25.76
2017-08-25T19:07:45.505Z,25.73
2017-08-25T19:10:16.941Z,25.78
2017-08-25T19:12:48.276Z,25.82
2017-08-25T19:15:20.862Z,25.87
2017-08-25T19:17:52.180Z,25.90
2017-08-25T19:20:26.036Z,25.94
2017-08-25T19:22:57.401Z,25.93
2017-08-25T19:25:28.836Z,25.86
2017-08-25T19:28:00.215Z,25.86
2017-08-25T19:30:32.498Z,25.83
2017-08-25T19:33:04.759Z,25.78
2017-08-25T19:35:36.343Z,25.79
2017-08-25T19:38:08.092Z,25.97
2017-08-25T19:40:39.698Z,26.11
2017-08-25T19:43:11.493Z,26.33
2017-08-25T19:45:43.682Z,26.40
2017-08-25T19:49:07.562Z,26.49
2017-08-25T19:51:40.106Z,26.48
2017-08-25T19:54:14.925Z,26.49
2017-08-25T19:56:46.232Z,26.47
2017-08-25T19:59:19.486Z,26.42
2017-08-25T20:01:50.816Z,26.43
2017-08-25T20:04:25.830Z,26.40
2017-08-25T20:07:02.055Z,26.35
2017-08-25T20:09:33.512Z,26.27
2017-08-25T20:12:06.817Z,26.29
2017-08-25T20:14:38.555Z,26.24
2017-08-25T20:17:10.123Z,26.22
2017-08-25T20:19:41.453Z,26.12
2017-08-25T20:22:14.050Z,26.09
2017-08-25T20:24:45.460Z,26.04
2017-08-25T20:27:16.978Z,26.04
2017-08-25T20:29:48.967Z,25.94
2017-08-25T20:32:22.181Z,26.00
2017-08-25T20:34:53.552Z,26.09
2017-08-25T20:37:26.204Z,25.99
2017-08-25T20:39:57.535Z,26.03
2017-08-25T20:42:29.195Z,26.01
2017-08-25T20:45:00.855Z,25.92
2017-08-25T20:47:32.265Z,25.92
2017-08-25T20:50:10.555Z,25.89
2017-08-25T20:52:42.470Z,25.90
2017-08-25T20:55:13.915Z,25.88
2017-08-25T20:57:45.333Z,25.86
2017-08-25T21:00:18.345Z,25.92
2017-08-25T21:02:51.523Z,25.95
2017-08-25T21:05:27.218Z,25.89
2017-08-25T21:07:58.860Z,25.80
2017-08-25T21:10:30.331Z,25.78
2017-08-25T21:13:01.887Z,25.78
2017-08-25T21:15:35.016Z,25.78
2017-08-25T21:18:07.927Z,25.81
2017-08-25T21:20:39.729Z,25.82
2017-08-25T21:23:13.845Z,25.80
2017-08-25T21:25:46.202Z,25.73
2017-08-25T21:28:18.314Z,25.75
2017-08-25T21:30:50.291Z,25.73
2017-08-25T21:33:25.137Z,25.72
2017-08-25T21:35:56.901Z,25.66
2017-08-25T21:38:29.092Z,25.66
2017-08-25T21:41:00.701Z,25.58
2017-08-25T21:43:32.140Z,25.56
2017-08-25T21:46:07.182Z,25.52
2017-08-25T21:48:38.775Z,25.54
2017-08-25T21:51:10.386Z,25.61
2017-08-25T21:53:41.701Z,25.55
2017-08-25T21:58:37.051Z,25.52
2017-08-25T22:01:09.333Z,25.44
2017-08-25T22:03:41.019Z,25.33
2017-08-25T22:06:12.439Z,25.26
2017-08-25T22:08:44.784Z,25.31
2017-08-25T22:11:16.818Z,25.35
2017-08-25T22:16:16.227Z,25.44
2017-08-25T22:18:48.024Z,25.42
2017-08-25T22:21:19.853Z,25.39
2017-08-25T22:23:51.565Z,25.22
2017-08-25T22:26:23.468Z,25.03
2017-08-25T22:28:54.819Z,24.95
2017-08-25T22:31:26.450Z,25.09
2017-08-25T22:33:57.955Z,25.22
2017-08-25T22:36:29.313Z,25.06
2017-08-25T22:39:01.368Z,24.96
2017-08-25T22:41:32.720Z,24.77
2017-08-25T22:44:05.614Z,24.60
2017-08-25T22:46:37.348Z,24.40
2017-08-25T22:49:08.814Z,24.23
2017-08-25T22:51:40.166Z,24.03
2017-08-25T22:54:13.213Z,24.04
2017-08-25T22:56:44.600Z,23.98
2017-08-25T22:59:16.323Z,23.85
2017-08-25T23:01:48.038Z,23.80
2017-08-25T23:04:19.859Z,23.74
2017-08-25T23:06:52.659Z,23.64
2017-08-25T23:09:25.626Z,23.54
2017-08-25T23:11:57.249Z,23.51
2017-08-25T23:14:29.081Z,23.41
2017-08-25T23:17:00.787Z,23.36
2017-08-25T23:19:32.674Z,23.34
2017-08-25T23:22:05.307Z,23.36
2017-08-25T23:24:36.639Z,23.34
2017-08-25T23:30:05.061Z,23.18
2017-08-25T23:32:36.513Z,23.13
2017-08-25T23:35:08.017Z,23.09
2017-08-25T23:37:39.905Z,23.04
2017-08-25T23:40:12.405Z,23.01
2017-08-25T23:42:44.371Z,22.96
2017-08-25T23:45:15.785Z,22.93
2017-08-25T23:47:47.265Z,22.88
2017-08-25T23:50:21.442Z,22.88
2017-08-25T23:52:52.874Z,22.92
2017-08-25T23:55:25.579Z,22.93
2017-08-25T23:57:57.374Z,22.90
